sensor_id;sensor_type;location;lat;lon;timestamp;temperature;humidity
10276;DHT22;5183;51.190;6.820;2024-01-30T00:01:02;8.70;1.00
10276;DHT22;5183;51.190;6.820;2024-01-30T00:03:29;8.70;1.00
10276;DHT22;5183;51.190;6.820;2024-01-30T00:05:57;8.70;1.00
10276;DHT22;5183;51.190;6.820;2024-01-30T00:08:24;8.80;99.90
10276;DHT22;5183;51.190;6.820;2024-01-30T00:10:50;8.70;99.90
10276;DHT22;5183;51.190;6.820;2024-01-30T00:13:17;8.70;99.90
10276;DHT22;5183;51.190;6.820;2024-01-30T00:15:45;8.70;99.90
10276;DHT22;5183;51.190;6.820;2024-01-30T00:18:12;8.70;99.90
10276;DHT22;5183;51.190;6.820;2024-01-30T00:20:39;8.70;1.00
10276;DHT22;5183;51.190;6.820;2024-01-30T00:23:07;8.60;1.00
10276;DHT22;5183;51.190;6.820;2024-01-30T00:25:34;8.70;99.90
10276;DHT22;5183;51.190;6.820;2024-01-30T00:28:01;8.60;99.90
10276;DHT22;5183;51.190;6.820;2024-01-30T00:30:28;8.60;1.00
10276;DHT22;5183;51.190;6.820;2024-01-30T00:32:54;8.60;1.00
10276;DHT22;5183;51.190;6.820;2024-01-30T00:35:21;8.50;1.00
10276;DHT22;5183;51.190;6.820;2024-01-30T00:37:48;8.50;1.00
10276;DHT22;5183;51.190;6.820;2024-01-30T00:40:16;8.50;1.00
10276;DHT22;5183;51.190;6.820;2024-01-30T00:42:43;8.40;1.00
10276;DHT22;5183;51.190;6.820;2024-01-30T00:45:12;8.50;1.00
10276;DHT22;5183;51.190;6.820;2024-01-30T00:47:39;8.40;1.00
10276;DHT22;5183;51.190;6.820;2024-01-30T00:50:07;8.40;1.00
10276;DHT22;5183;51.190;6.820;2024-01-30T00:52:33;8.40;1.00
10276;DHT22;5183;51.190;6.820;2024-01-30T00:55:01;8.40;1.00
10276;DHT22;5183;51.190;6.820;2024-01-30T00:57:29;8.30;1.00
10276;DHT22;5183;51.190;6.820;2024-01-30T00:59:56;8.30;1.00
10276;DHT22;5183;51.190;6.820;2024-01-30T01:02:23;8.20;1.00
10276;DHT22;5183;51.190;6.820;2024-01-30T01:04:50;8.10;1.00
10276;DHT22;5183;51.190;6.820;2024-01-30T01:07:16;8.20;1.00
10276;DHT22;5183;51.190;6.820;2024-01-30T01:09:43;8.10;1.00
10276;DHT22;5183;51.190;6.820;2024-01-30T01:12:10;8.20;1.00
10276;DHT22;5183;51.190;6.820;2024-01-30T01:14:38;8.20;1.00
10276;DHT22;5183;51.190;6.820;2024-01-30T01:17:05;8.20;1.00
10276;DHT22;5183;51.190;6.820;2024-01-30T01:19:31;8.20;1.00
10276;DHT22;5183;51.190;6.820;2024-01-30T01:21:58;8.10;1.00
10276;DHT22;5183;51.190;6.820;2024-01-30T01:24:25;8.10;1.00
10276;DHT22;5183;51.190;6.820;2024-01-30T01:26:52;8.10;1.00
10276;DHT22;5183;51.190;6.820;2024-01-30T01:29:19;8.10;1.00
10276;DHT22;5183;51.190;6.820;2024-01-30T01:31:47;8.10;1.00
10276;DHT22;5183;51.190;6.820;2024-01-30T01:34:14;8.10;1.00
10276;DHT22;5183;51.190;6.820;2024-01-30T01:36:41;8.10;1.00
10276;DHT22;5183;51.190;6.820;2024-01-30T01:39:08;8.00;1.00
10276;DHT22;5183;51.190;6.820;2024-01-30T01:41:35;8.00;1.00
10276;DHT22;5183;51.190;6.820;2024-01-30T01:44:02;8.00;1.00
10276;DHT22;5183;51.190;6.820;2024-01-30T01:46:32;8.00;1.00
10276;DHT22;5183;51.190;6.820;2024-01-30T01:49:02;8.00;1.00
10276;DHT22;5183;51.190;6.820;2024-01-30T01:51:33;8.00;17.10
10276;DHT22;5183;51.190;6.820;2024-01-30T01:54:03;8.00;1.00
10276;DHT22;5183;51.190;6.820;2024-01-30T01:56:31;7.90;93.70
10276;DHT22;5183;51.190;6.820;2024-01-30T01:59:00;8.00;1.00
10276;DHT22;5183;51.190;6.820;2024-01-30T02:01:31;8.00;30.30
10276;DHT22;5183;51.190;6.820;2024-01-30T02:04:00;8.00;1.00
10276;DHT22;5183;51.190;6.820;2024-01-30T02:06:27;7.90;1.00
10276;DHT22;5183;51.190;6.820;2024-01-30T02:08:54;7.90;53.60
10276;DHT22;5183;51.190;6.820;2024-01-30T02:11:22;8.00;13.90
10276;DHT22;5183;51.190;6.820;2024-01-30T02:13:49;7.90;1.00
10276;DHT22;5183;51.190;6.820;2024-01-30T02:16:16;8.00;1.00
10276;DHT22;5183;51.190;6.820;2024-01-30T02:18:43;8.00;1.00
10276;DHT22;5183;51.190;6.820;2024-01-30T02:21:14;8.00;1.00
10276;DHT22;5183;51.190;6.820;2024-01-30T02:23:43;8.00;1.00
10276;DHT22;5183;51.190;6.820;2024-01-30T02:26:10;8.00;1.00
10276;DHT22;5183;51.190;6.820;2024-01-30T02:28:37;8.00;1.00
10276;DHT22;5183;51.190;6.820;2024-01-30T02:31:04;8.00;1.00
10276;DHT22;5183;51.190;6.820;2024-01-30T02:33:31;8.00;1.00
10276;DHT22;5183;51.190;6.820;2024-01-30T02:35:58;8.00;1.00
10276;DHT22;5183;51.190;6.820;2024-01-30T02:38:27;8.10;1.00
10276;DHT22;5183;51.190;6.820;2024-01-30T02:40:54;8.10;1.00
10276;DHT22;5183;51.190;6.820;2024-01-30T02:43:22;8.00;1.00
10276;DHT22;5183;51.190;6.820;2024-01-30T02:45:48;8.00;1.00
10276;DHT22;5183;51.190;6.820;2024-01-30T02:48:15;8.10;1.00
10276;DHT22;5183;51.190;6.820;2024-01-30T02:50:42;8.00;1.00
10276;DHT22;5183;51.190;6.820;2024-01-30T02:53:09;8.00;1.00
10276;DHT22;5183;51.190;6.820;2024-01-30T02:55:37;8.10;1.00
10276;DHT22;5183;51.190;6.820;2024-01-30T02:58:04;8.00;1.00
10276;DHT22;5183;51.190;6.820;2024-01-30T03:00:31;8.00;1.00
10276;DHT22;5183;51.190;6.820;2024-01-30T03:02:58;8.00;1.00
10276;DHT22;5183;51.190;6.820;2024-01-30T03:05:25;8.00;1.00
10276;DHT22;5183;51.190;6.820;2024-01-30T03:07:51;8.00;1.00
10276;DHT22;5183;51.190;6.820;2024-01-30T03:10:18;8.00;1.00
10276;DHT22;5183;51.190;6.820;2024-01-30T03:12:46;8.10;1.00
10276;DHT22;5183;51.190;6.820;2024-01-30T03:15:13;8.10;1.00
10276;DHT22;5183;51.190;6.820;2024-01-30T03:17:41;8.00;1.00
10276;DHT22;5183;51.190;6.820;2024-01-30T03:20:08;8.10;1.00
10276;DHT22;5183;51.190;6.820;2024-01-30T03:22:35;8.00;1.00
10276;DHT22;5183;51.190;6.820;2024-01-30T03:25:02;8.10;1.00
10276;DHT22;5183;51.190;6.820;2024-01-30T03:27:29;8.10;1.00
10276;DHT22;5183;51.190;6.820;2024-01-30T03:29:57;8.10;1.00
10276;DHT22;5183;51.190;6.820;2024-01-30T03:32:24;8.10;1.00
10276;DHT22;5183;51.190;6.820;2024-01-30T03:34:51;8.10;1.00
10276;DHT22;5183;51.190;6.820;2024-01-30T03:37:18;8.10;1.00
10276;DHT22;5183;51.190;6.820;2024-01-30T03:39:45;8.20;1.00
10276;DHT22;5183;51.190;6.820;2024-01-30T03:42:12;8.20;1.00
10276;DHT22;5183;51.190;6.820;2024-01-30T03:44:38;8.10;1.00
10276;DHT22;5183;51.190;6.820;2024-01-30T03:47:07;8.00;1.00
10276;DHT22;5183;51.190;6.820;2024-01-30T03:49:33;8.00;1.00
10276;DHT22;5183;51.190;6.820;2024-01-30T03:52:00;8.00;1.00
10276;DHT22;5183;51.190;6.820;2024-01-30T03:54:27;7.90;1.00
10276;DHT22;5183;51.190;6.820;2024-01-30T03:56:54;8.00;1.00
10276;DHT22;5183;51.190;6.820;2024-01-30T03:59:21;8.00;1.00
10276;DHT22;5183;51.190;6.820;2024-01-30T04:01:49;8.00;1.00
10276;DHT22;5183;51.190;6.820;2024-01-30T04:04:18;8.00;1.00
10276;DHT22;5183;51.190;6.820;2024-01-30T04:06:45;7.90;1.00
10276;DHT22;5183;51.190;6.820;2024-01-30T04:09:13;7.90;1.00
10276;DHT22;5183;51.190;6.820;2024-01-30T04:11:40;7.80;34.40
10276;DHT22;5183;51.190;6.820;2024-01-30T04:14:07;7.80;99.90
10276;DHT22;5183;51.190;6.820;2024-01-30T04:16:34;7.80;99.90
10276;DHT22;5183;51.190;6.820;2024-01-30T04:19:01;7.80;82.60
10276;DHT22;5183;51.190;6.820;2024-01-30T04:21:30;7.80;99.90
10276;DHT22;5183;51.190;6.820;2024-01-30T04:23:56;7.70;99.90
10276;DHT22;5183;51.190;6.820;2024-01-30T04:26:23;7.70;99.90
10276;DHT22;5183;51.190;6.820;2024-01-30T04:28:50;7.60;99.90
10276;DHT22;5183;51.190;6.820;2024-01-30T04:31:17;7.60;1.00
10276;DHT22;5183;51.190;6.820;2024-01-30T04:33:43;7.60;1.00
10276;DHT22;5183;51.190;6.820;2024-01-30T04:36:10;7.60;1.00
10276;DHT22;5183;51.190;6.820;2024-01-30T04:38:38;7.60;1.00
10276;DHT22;5183;51.190;6.820;2024-01-30T04:41:05;7.70;1.00
10276;DHT22;5183;51.190;6.820;2024-01-30T04:43:32;7.70;99.90
10276;DHT22;5183;51.190;6.820;2024-01-30T04:45:58;7.70;99.90
10276;DHT22;5183;51.190;6.820;2024-01-30T04:48:25;7.80;99.90
10276;DHT22;5183;51.190;6.820;2024-01-30T04:50:52;7.80;99.90
10276;DHT22;5183;51.190;6.820;2024-01-30T04:53:19;7.80;99.90
10276;DHT22;5183;51.190;6.820;2024-01-30T04:55:47;7.70;99.90
10276;DHT22;5183;51.190;6.820;2024-01-30T04:58:14;7.70;99.90
10276;DHT22;5183;51.190;6.820;2024-01-30T05:00:40;7.80;99.90
10276;DHT22;5183;51.190;6.820;2024-01-30T05:03:07;7.90;34.80
10276;DHT22;5183;51.190;6.820;2024-01-30T05:05:34;7.90;14.80
10276;DHT22;5183;51.190;6.820;2024-01-30T05:08:00;7.90;33.00
10276;DHT22;5183;51.190;6.820;2024-01-30T05:10:27;7.90;1.00
10276;DHT22;5183;51.190;6.820;2024-01-30T05:12:56;7.90;1.00
10276;DHT22;5183;51.190;6.820;2024-01-30T05:15:23;7.90;60.80
10276;DHT22;5183;51.190;6.820;2024-01-30T05:17:49;7.90;25.70
10276;DHT22;5183;51.190;6.820;2024-01-30T05:20:16;7.90;1.00
10276;DHT22;5183;51.190;6.820;2024-01-30T05:22:43;7.80;1.00
10276;DHT22;5183;51.190;6.820;2024-01-30T05:25:11;7.80;94.10
10276;DHT22;5183;51.190;6.820;2024-01-30T05:27:38;7.80;99.90
10276;DHT22;5183;51.190;6.820;2024-01-30T05:30:07;7.80;99.90
10276;DHT22;5183;51.190;6.820;2024-01-30T05:32:34;7.80;99.90
10276;DHT22;5183;51.190;6.820;2024-01-30T05:35:01;7.70;99.90
10276;DHT22;5183;51.190;6.820;2024-01-30T05:37:28;7.70;99.90
10276;DHT22;5183;51.190;6.820;2024-01-30T05:39:55;7.70;99.90
10276;DHT22;5183;51.190;6.820;2024-01-30T05:42:23;7.70;99.90
10276;DHT22;5183;51.190;6.820;2024-01-30T05:44:50;7.70;99.90
10276;DHT22;5183;51.190;6.820;2024-01-30T05:47:18;7.60;99.90
10276;DHT22;5183;51.190;6.820;2024-01-30T05:49:45;7.70;99.90
10276;DHT22;5183;51.190;6.820;2024-01-30T05:52:11;7.60;99.90
10276;DHT22;5183;51.190;6.820;2024-01-30T05:54:38;7.60;99.90
10276;DHT22;5183;51.190;6.820;2024-01-30T05:57:05;7.70;99.90
10276;DHT22;5183;51.190;6.820;2024-01-30T05:59:31;7.60;99.90
10276;DHT22;5183;51.190;6.820;2024-01-30T06:01:58;7.60;99.90
10276;DHT22;5183;51.190;6.820;2024-01-30T06:04:26;7.60;99.90
10276;DHT22;5183;51.190;6.820;2024-01-30T06:06:53;7.60;99.90
10276;DHT22;5183;51.190;6.820;2024-01-30T06:09:21;7.50;99.90
10276;DHT22;5183;51.190;6.820;2024-01-30T06:11:47;7.60;99.90
10276;DHT22;5183;51.190;6.820;2024-01-30T06:14:14;7.60;99.90
10276;DHT22;5183;51.190;6.820;2024-01-30T06:16:41;7.50;99.90
10276;DHT22;5183;51.190;6.820;2024-01-30T06:19:08;7.50;1.00
10276;DHT22;5183;51.190;6.820;2024-01-30T06:21:36;7.50;1.00
10276;DHT22;5183;51.190;6.820;2024-01-30T06:24:04;7.50;1.00
10276;DHT22;5183;51.190;6.820;2024-01-30T06:26:31;7.50;99.90
10276;DHT22;5183;51.190;6.820;2024-01-30T06:28:58;7.60;99.90
10276;DHT22;5183;51.190;6.820;2024-01-30T06:31:24;7.70;99.90
10276;DHT22;5183;51.190;6.820;2024-01-30T06:33:51;7.70;99.90
10276;DHT22;5183;51.190;6.820;2024-01-30T06:36:18;7.70;99.90
10276;DHT22;5183;51.190;6.820;2024-01-30T06:38:47;7.70;99.90
10276;DHT22;5183;51.190;6.820;2024-01-30T06:41:13;7.70;99.90
10276;DHT22;5183;51.190;6.820;2024-01-30T06:43:40;7.70;99.90
10276;DHT22;5183;51.190;6.820;2024-01-30T06:46:07;7.70;99.90
10276;DHT22;5183;51.190;6.820;2024-01-30T06:48:34;7.80;91.90
10276;DHT22;5183;51.190;6.820;2024-01-30T06:51:01;7.80;83.60
10276;DHT22;5183;51.190;6.820;2024-01-30T06:53:28;7.80;93.40
10276;DHT22;5183;51.190;6.820;2024-01-30T06:55:56;7.80;99.90
10276;DHT22;5183;51.190;6.820;2024-01-30T06:58:23;7.80;36.60
10276;DHT22;5183;51.190;6.820;2024-01-30T07:00:49;7.80;99.90
10276;DHT22;5183;51.190;6.820;2024-01-30T07:03:16;7.80;44.00
10276;DHT22;5183;51.190;6.820;2024-01-30T07:05:43;7.90;99.90
10276;DHT22;5183;51.190;6.820;2024-01-30T07:08:10;7.90;1.00
10276;DHT22;5183;51.190;6.820;2024-01-30T07:10:37;7.90;1.00
10276;DHT22;5183;51.190;6.820;2024-01-30T07:13:05;8.00;1.00
10276;DHT22;5183;51.190;6.820;2024-01-30T07:15:32;7.90;1.00
10276;DHT22;5183;51.190;6.820;2024-01-30T07:17:59;8.00;1.00
10276;DHT22;5183;51.190;6.820;2024-01-30T07:20:26;8.00;1.00
10276;DHT22;5183;51.190;6.820;2024-01-30T07:22:53;7.90;1.00
10276;DHT22;5183;51.190;6.820;2024-01-30T07:25:20;8.00;1.00
10276;DHT22;5183;51.190;6.820;2024-01-30T07:27:47;8.00;1.00
10276;DHT22;5183;51.190;6.820;2024-01-30T07:30:15;8.00;1.00
10276;DHT22;5183;51.190;6.820;2024-01-30T07:32:42;8.00;1.00
10276;DHT22;5183;51.190;6.820;2024-01-30T07:35:09;8.00;1.00
10276;DHT22;5183;51.190;6.820;2024-01-30T07:37:36;8.00;1.00
10276;DHT22;5183;51.190;6.820;2024-01-30T07:40:04;8.10;1.00
10276;DHT22;5183;51.190;6.820;2024-01-30T07:42:32;8.20;1.00
10276;DHT22;5183;51.190;6.820;2024-01-30T07:44:59;8.20;1.00
10276;DHT22;5183;51.190;6.820;2024-01-30T07:47:27;8.30;1.00
10276;DHT22;5183;51.190;6.820;2024-01-30T07:49:54;8.30;1.00
10276;DHT22;5183;51.190;6.820;2024-01-30T07:52:20;8.40;1.00
10276;DHT22;5183;51.190;6.820;2024-01-30T07:54:47;8.40;1.00
10276;DHT22;5183;51.190;6.820;2024-01-30T07:57:14;8.40;1.00
10276;DHT22;5183;51.190;6.820;2024-01-30T07:59:42;8.30;1.00
10276;DHT22;5183;51.190;6.820;2024-01-30T08:02:09;8.40;1.00
10276;DHT22;5183;51.190;6.820;2024-01-30T08:04:37;8.40;1.00
10276;DHT22;5183;51.190;6.820;2024-01-30T08:07:04;8.50;1.00
10276;DHT22;5183;51.190;6.820;2024-01-30T08:09:31;8.40;1.00
10276;DHT22;5183;51.190;6.820;2024-01-30T08:11:58;8.40;1.00
10276;DHT22;5183;51.190;6.820;2024-01-30T08:14:25;8.40;1.00
10276;DHT22;5183;51.190;6.820;2024-01-30T08:16:52;8.50;1.00
10276;DHT22;5183;51.190;6.820;2024-01-30T08:19:19;8.50;1.00
10276;DHT22;5183;51.190;6.820;2024-01-30T08:21:47;8.50;1.00
10276;DHT22;5183;51.190;6.820;2024-01-30T08:24:14;8.60;1.00
10276;DHT22;5183;51.190;6.820;2024-01-30T08:26:41;8.60;1.00
10276;DHT22;5183;51.190;6.820;2024-01-30T08:29:07;8.70;1.00
10276;DHT22;5183;51.190;6.820;2024-01-30T08:31:34;8.70;99.90
10276;DHT22;5183;51.190;6.820;2024-01-30T08:34:01;8.70;99.90
10276;DHT22;5183;51.190;6.820;2024-01-30T08:36:28;8.80;99.90
10276;DHT22;5183;51.190;6.820;2024-01-30T08:38:56;8.80;99.90
10276;DHT22;5183;51.190;6.820;2024-01-30T08:41:24;8.80;99.90
10276;DHT22;5183;51.190;6.820;2024-01-30T08:43:52;8.90;99.90
10276;DHT22;5183;51.190;6.820;2024-01-30T08:46:20;9.00;99.90
10276;DHT22;5183;51.190;6.820;2024-01-30T08:48:46;9.00;99.90
10276;DHT22;5183;51.190;6.820;2024-01-30T08:51:14;9.10;99.90
10276;DHT22;5183;51.190;6.820;2024-01-30T08:53:41;9.10;99.90
10276;DHT22;5183;51.190;6.820;2024-01-30T08:56:10;9.20;99.90
10276;DHT22;5183;51.190;6.820;2024-01-30T08:58:36;9.20;99.90
10276;DHT22;5183;51.190;6.820;2024-01-30T09:01:03;9.20;99.90
10276;DHT22;5183;51.190;6.820;2024-01-30T09:03:31;9.20;99.90
10276;DHT22;5183;51.190;6.820;2024-01-30T09:05:58;9.20;99.90
10276;DHT22;5183;51.190;6.820;2024-01-30T09:08:24;9.30;99.90
10276;DHT22;5183;51.190;6.820;2024-01-30T09:10:51;9.30;99.90
10276;DHT22;5183;51.190;6.820;2024-01-30T09:13:21;9.40;99.90
10276;DHT22;5183;51.190;6.820;2024-01-30T09:15:47;9.40;99.90
10276;DHT22;5183;51.190;6.820;2024-01-30T09:18:14;9.50;95.10
10276;DHT22;5183;51.190;6.820;2024-01-30T09:20:41;9.60;50.50
10276;DHT22;5183;51.190;6.820;2024-01-30T09:23:08;9.70;14.80
10276;DHT22;5183;51.190;6.820;2024-01-30T09:25:35;9.80;1.00
10276;DHT22;5183;51.190;6.820;2024-01-30T09:28:02;9.80;1.00
10276;DHT22;5183;51.190;6.820;2024-01-30T09:30:30;9.90;1.00
10276;DHT22;5183;51.190;6.820;2024-01-30T09:32:57;9.90;1.00
10276;DHT22;5183;51.190;6.820;2024-01-30T09:35:24;10.00;1.00
10276;DHT22;5183;51.190;6.820;2024-01-30T09:37:50;10.10;1.00
10276;DHT22;5183;51.190;6.820;2024-01-30T09:40:18;10.20;1.00
10276;DHT22;5183;51.190;6.820;2024-01-30T09:42:47;10.30;1.00
10276;DHT22;5183;51.190;6.820;2024-01-30T09:45:16;10.30;1.00
10276;DHT22;5183;51.190;6.820;2024-01-30T09:47:45;10.40;1.00
10276;DHT22;5183;51.190;6.820;2024-01-30T09:50:14;10.40;1.00
10276;DHT22;5183;51.190;6.820;2024-01-30T09:52:43;10.50;1.00
10276;DHT22;5183;51.190;6.820;2024-01-30T09:55:10;10.50;1.00
10276;DHT22;5183;51.190;6.820;2024-01-30T09:57:37;10.50;1.00
10276;DHT22;5183;51.190;6.820;2024-01-30T10:00:05;10.70;1.00
10276;DHT22;5183;51.190;6.820;2024-01-30T10:02:34;10.70;1.00
10276;DHT22;5183;51.190;6.820;2024-01-30T10:05:03;10.80;1.00
10276;DHT22;5183;51.190;6.820;2024-01-30T10:07:30;10.80;1.00
10276;DHT22;5183;51.190;6.820;2024-01-30T10:09:57;10.80;1.00
10276;DHT22;5183;51.190;6.820;2024-01-30T10:12:26;10.90;1.00
10276;DHT22;5183;51.190;6.820;2024-01-30T10:14:55;10.80;1.00
10276;DHT22;5183;51.190;6.820;2024-01-30T10:17:25;10.90;1.00
10276;DHT22;5183;51.190;6.820;2024-01-30T10:19:52;10.90;1.00
10276;DHT22;5183;51.190;6.820;2024-01-30T10:22:20;11.00;1.00
10276;DHT22;5183;51.190;6.820;2024-01-30T10:24:48;11.00;1.00
10276;DHT22;5183;51.190;6.820;2024-01-30T10:27:15;11.10;1.00
10276;DHT22;5183;51.190;6.820;2024-01-30T10:29:42;11.10;1.00
10276;DHT22;5183;51.190;6.820;2024-01-30T10:32:09;11.30;1.00
10276;DHT22;5183;51.190;6.820;2024-01-30T10:34:36;11.30;1.00
10276;DHT22;5183;51.190;6.820;2024-01-30T10:37:07;11.30;1.00
10276;DHT22;5183;51.190;6.820;2024-01-30T10:39:39;11.40;1.00
10276;DHT22;5183;51.190;6.820;2024-01-30T10:42:07;11.40;1.00
10276;DHT22;5183;51.190;6.820;2024-01-30T10:44:39;11.40;1.00
10276;DHT22;5183;51.190;6.820;2024-01-30T10:47:12;11.40;1.00
10276;DHT22;5183;51.190;6.820;2024-01-30T10:49:40;11.40;1.00
10276;DHT22;5183;51.190;6.820;2024-01-30T10:52:08;11.50;1.00
10276;DHT22;5183;51.190;6.820;2024-01-30T10:54:36;11.60;1.00
10276;DHT22;5183;51.190;6.820;2024-01-30T10:57:05;11.70;1.00
10276;DHT22;5183;51.190;6.820;2024-01-30T10:59:33;11.70;1.00
10276;DHT22;5183;51.190;6.820;2024-01-30T11:02:00;11.80;1.00
10276;DHT22;5183;51.190;6.820;2024-01-30T11:04:27;11.80;1.00
10276;DHT22;5183;51.190;6.820;2024-01-30T11:07:01;11.90;1.00
10276;DHT22;5183;51.190;6.820;2024-01-30T11:09:29;12.00;1.00
10276;DHT22;5183;51.190;6.820;2024-01-30T11:11:58;12.10;1.00
10276;DHT22;5183;51.190;6.820;2024-01-30T11:14:27;12.10;1.00
10276;DHT22;5183;51.190;6.820;2024-01-30T11:16:57;12.10;1.00
10276;DHT22;5183;51.190;6.820;2024-01-30T11:19:25;12.10;1.00
10276;DHT22;5183;51.190;6.820;2024-01-30T11:21:53;12.10;1.00
10276;DHT22;5183;51.190;6.820;2024-01-30T11:24:22;12.10;1.00
10276;DHT22;5183;51.190;6.820;2024-01-30T11:26:49;12.10;1.00
10276;DHT22;5183;51.190;6.820;2024-01-30T11:29:17;12.10;1.00
10276;DHT22;5183;51.190;6.820;2024-01-30T11:31:53;12.10;1.00
10276;DHT22;5183;51.190;6.820;2024-01-30T11:34:20;12.20;1.00
10276;DHT22;5183;51.190;6.820;2024-01-30T11:36:52;12.20;1.00
10276;DHT22;5183;51.190;6.820;2024-01-30T11:39:21;12.10;1.00
10276;DHT22;5183;51.190;6.820;2024-01-30T11:41:49;12.10;1.00
10276;DHT22;5183;51.190;6.820;2024-01-30T11:44:17;12.10;1.00
10276;DHT22;5183;51.190;6.820;2024-01-30T11:46:45;12.20;1.00
10276;DHT22;5183;51.190;6.820;2024-01-30T11:49:14;12.20;1.00
10276;DHT22;5183;51.190;6.820;2024-01-30T11:51:41;12.20;1.00
10276;DHT22;5183;51.190;6.820;2024-01-30T11:54:08;12.20;1.00
10276;DHT22;5183;51.190;6.820;2024-01-30T11:56:37;12.20;1.00
10276;DHT22;5183;51.190;6.820;2024-01-30T11:59:04;12.30;1.00
10276;DHT22;5183;51.190;6.820;2024-01-30T12:01:31;12.20;1.00
10276;DHT22;5183;51.190;6.820;2024-01-30T12:03:58;12.20;1.00
10276;DHT22;5183;51.190;6.820;2024-01-30T12:06:27;12.20;1.00
10276;DHT22;5183;51.190;6.820;2024-01-30T12:08:57;12.20;1.00
10276;DHT22;5183;51.190;6.820;2024-01-30T12:11:25;12.20;1.00
10276;DHT22;5183;51.190;6.820;2024-01-30T12:13:52;12.20;1.00
10276;DHT22;5183;51.190;6.820;2024-01-30T12:16:20;12.20;1.00
10276;DHT22;5183;51.190;6.820;2024-01-30T12:18:47;12.10;1.00
10276;DHT22;5183;51.190;6.820;2024-01-30T12:21:16;12.20;1.00
10276;DHT22;5183;51.190;6.820;2024-01-30T12:23:45;12.20;1.00
10276;DHT22;5183;51.190;6.820;2024-01-30T12:26:12;12.20;1.00
10276;DHT22;5183;51.190;6.820;2024-01-30T12:28:48;12.30;1.00
10276;DHT22;5183;51.190;6.820;2024-01-30T12:31:15;12.20;1.00
10276;DHT22;5183;51.190;6.820;2024-01-30T12:33:42;12.20;1.00
10276;DHT22;5183;51.190;6.820;2024-01-30T12:36:09;12.20;1.00
10276;DHT22;5183;51.190;6.820;2024-01-30T12:38:36;12.20;1.00
10276;DHT22;5183;51.190;6.820;2024-01-30T12:41:07;12.20;1.00
10276;DHT22;5183;51.190;6.820;2024-01-30T12:43:34;12.20;1.00
10276;DHT22;5183;51.190;6.820;2024-01-30T12:46:01;12.30;1.00
10276;DHT22;5183;51.190;6.820;2024-01-30T12:48:29;12.30;1.00
10276;DHT22;5183;51.190;6.820;2024-01-30T12:50:56;12.30;1.00
10276;DHT22;5183;51.190;6.820;2024-01-30T12:53:23;12.40;1.00
10276;DHT22;5183;51.190;6.820;2024-01-30T12:55:50;12.40;1.00
10276;DHT22;5183;51.190;6.820;2024-01-30T12:58:18;12.40;1.00
10276;DHT22;5183;51.190;6.820;2024-01-30T13:00:45;12.40;1.00
10276;DHT22;5183;51.190;6.820;2024-01-30T13:03:12;12.40;1.00
10276;DHT22;5183;51.190;6.820;2024-01-30T13:05:39;12.50;1.00
10276;DHT22;5183;51.190;6.820;2024-01-30T13:08:06;12.50;1.00
10276;DHT22;5183;51.190;6.820;2024-01-30T13:10:33;12.50;1.00
10276;DHT22;5183;51.190;6.820;2024-01-30T13:13:00;12.40;1.00
10276;DHT22;5183;51.190;6.820;2024-01-30T13:15:28;12.50;1.00
10276;DHT22;5183;51.190;6.820;2024-01-30T13:17:55;12.40;1.00
10276;DHT22;5183;51.190;6.820;2024-01-30T13:20:22;12.50;1.00
10276;DHT22;5183;51.190;6.820;2024-01-30T13:22:49;12.50;1.00
10276;DHT22;5183;51.190;6.820;2024-01-30T13:25:16;12.50;1.00
10276;DHT22;5183;51.190;6.820;2024-01-30T13:27:42;12.40;1.00
10276;DHT22;5183;51.190;6.820;2024-01-30T13:30:10;12.40;1.00
10276;DHT22;5183;51.190;6.820;2024-01-30T13:32:38;12.40;1.00
10276;DHT22;5183;51.190;6.820;2024-01-30T13:35:06;12.40;1.00
10276;DHT22;5183;51.190;6.820;2024-01-30T13:37:33;12.40;1.00
10276;DHT22;5183;51.190;6.820;2024-01-30T13:40:01;12.40;1.00
10276;DHT22;5183;51.190;6.820;2024-01-30T13:42:28;12.40;1.00
10276;DHT22;5183;51.190;6.820;2024-01-30T13:44:54;12.40;1.00
10276;DHT22;5183;51.190;6.820;2024-01-30T13:47:21;12.40;1.00
10276;DHT22;5183;51.190;6.820;2024-01-30T13:49:50;12.40;1.00
10276;DHT22;5183;51.190;6.820;2024-01-30T13:52:18;12.40;1.00
10276;DHT22;5183;51.190;6.820;2024-01-30T13:54:45;12.40;1.00
10276;DHT22;5183;51.190;6.820;2024-01-30T13:57:12;12.40;1.00
10276;DHT22;5183;51.190;6.820;2024-01-30T13:59:39;12.50;1.00
10276;DHT22;5183;51.190;6.820;2024-01-30T14:02:06;12.50;1.00
10276;DHT22;5183;51.190;6.820;2024-01-30T14:04:35;12.60;1.00
10276;DHT22;5183;51.190;6.820;2024-01-30T14:07:04;12.70;1.00
10276;DHT22;5183;51.190;6.820;2024-01-30T14:09:32;12.70;1.00
10276;DHT22;5183;51.190;6.820;2024-01-30T14:11:59;12.70;1.00
10276;DHT22;5183;51.190;6.820;2024-01-30T14:14:26;12.70;1.00
10276;DHT22;5183;51.190;6.820;2024-01-30T14:16:53;12.70;1.00
10276;DHT22;5183;51.190;6.820;2024-01-30T14:19:20;12.70;1.00
10276;DHT22;5183;51.190;6.820;2024-01-30T14:21:47;12.70;1.00
10276;DHT22;5183;51.190;6.820;2024-01-30T14:24:15;12.70;1.00
10276;DHT22;5183;51.190;6.820;2024-01-30T14:26:42;12.70;1.00
10276;DHT22;5183;51.190;6.820;2024-01-30T14:29:09;12.70;1.00
10276;DHT22;5183;51.190;6.820;2024-01-30T14:31:36;12.70;1.00
10276;DHT22;5183;51.190;6.820;2024-01-30T14:34:03;12.80;1.00
10276;DHT22;5183;51.190;6.820;2024-01-30T14:36:31;12.80;1.00
10276;DHT22;5183;51.190;6.820;2024-01-30T14:38:58;12.80;1.00
10276;DHT22;5183;51.190;6.820;2024-01-30T14:41:26;12.70;1.00
10276;DHT22;5183;51.190;6.820;2024-01-30T14:43:54;12.60;1.00
10276;DHT22;5183;51.190;6.820;2024-01-30T14:46:21;12.50;1.00
10276;DHT22;5183;51.190;6.820;2024-01-30T14:48:48;12.50;1.00
10276;DHT22;5183;51.190;6.820;2024-01-30T14:51:16;12.50;1.00
10276;DHT22;5183;51.190;6.820;2024-01-30T14:53:43;12.50;1.00
10276;DHT22;5183;51.190;6.820;2024-01-30T14:56:11;12.50;1.00
10276;DHT22;5183;51.190;6.820;2024-01-30T14:58:39;12.40;1.00
10276;DHT22;5183;51.190;6.820;2024-01-30T15:01:06;12.40;1.00
10276;DHT22;5183;51.190;6.820;2024-01-30T15:03:33;12.40;1.00
10276;DHT22;5183;51.190;6.820;2024-01-30T15:06:01;12.40;1.00
10276;DHT22;5183;51.190;6.820;2024-01-30T15:08:30;12.40;1.00
10276;DHT22;5183;51.190;6.820;2024-01-30T15:10:58;12.30;1.00
10276;DHT22;5183;51.190;6.820;2024-01-30T15:13:25;12.20;1.00
10276;DHT22;5183;51.190;6.820;2024-01-30T15:15:53;12.20;1.00
10276;DHT22;5183;51.190;6.820;2024-01-30T15:18:20;12.20;1.00
10276;DHT22;5183;51.190;6.820;2024-01-30T15:20:47;12.20;1.00
10276;DHT22;5183;51.190;6.820;2024-01-30T15:23:14;12.10;1.00
10276;DHT22;5183;51.190;6.820;2024-01-30T15:25:41;12.10;1.00
10276;DHT22;5183;51.190;6.820;2024-01-30T15:28:08;12.10;1.00
10276;DHT22;5183;51.190;6.820;2024-01-30T15:30:36;12.00;1.00
10276;DHT22;5183;51.190;6.820;2024-01-30T15:33:04;12.00;1.00
10276;DHT22;5183;51.190;6.820;2024-01-30T15:35:31;12.00;1.00
10276;DHT22;5183;51.190;6.820;2024-01-30T15:37:58;11.90;1.00
10276;DHT22;5183;51.190;6.820;2024-01-30T15:40:25;11.90;1.00
10276;DHT22;5183;51.190;6.820;2024-01-30T15:42:51;11.70;1.00
10276;DHT22;5183;51.190;6.820;2024-01-30T15:45:18;11.70;1.00
10276;DHT22;5183;51.190;6.820;2024-01-30T15:47:45;11.70;1.00
10276;DHT22;5183;51.190;6.820;2024-01-30T15:50:13;11.70;1.00
10276;DHT22;5183;51.190;6.820;2024-01-30T15:52:40;11.60;1.00
10276;DHT22;5183;51.190;6.820;2024-01-30T15:55:07;11.50;1.00
10276;DHT22;5183;51.190;6.820;2024-01-30T15:57:33;11.60;1.00
10276;DHT22;5183;51.190;6.820;2024-01-30T16:00:00;11.50;1.00
10276;DHT22;5183;51.190;6.820;2024-01-30T16:02:27;11.50;1.00
10276;DHT22;5183;51.190;6.820;2024-01-30T16:04:54;11.30;1.00
10276;DHT22;5183;51.190;6.820;2024-01-30T16:07:22;11.40;1.00